Time;durP1;ratioP1;P1;durP2;ratioP2;P2;SDS_P1;SDS_P2;PMS_P1;PMS_P2;Temp;Humidity;BMP_temperature;BMP_pressure;BME280_temperature;BME280_humidity;BME280_pressure;Samples;Min_cycle;Max_cycle;Signal;HPM_P1;HPM_P2
2024/04/17 00:01:20;;;;;;;1.30;1.20;;;11.20;66.90;;;;;;5396422;26;20821;-60
2024/04/17 00:03:45;;;;;;;1.77;0.90;;;11.10;67.00;;;;;;5399927;26;20277;-60
2024/04/17 00:06:12;;;;;;;1.00;1.00;;;11.30;67.10;;;;;;5407806;26;20284;-62
2024/04/17 00:08:38;;;;;;;1.23;1.13;;;11.20;66.20;;;;;;5411852;26;20296;-61
2024/04/17 00:11:03;;;;;;;1.37;0.90;;;11.30;66.20;;;;;;5411591;26;20467;-61
2024/04/17 00:13:31;;;;;;;0.90;0.90;;;11.20;66.40;;;;;;5410348;26;20246;-61
2024/04/17 00:16:00;;;;;;;0.80;0.80;;;11.50;66.40;;;;;;5412746;26;20577;-62
2024/04/17 00:18:26;;;;;;;0.80;0.80;;;11.60;65.10;;;;;;5398165;26;20579;-61
2024/04/17 00:20:51;;;;;;;1.00;1.00;;;11.50;64.60;;;;;;5402491;26;20483;-61
2024/04/17 00:23:17;;;;;;;0.77;0.77;;;11.40;64.30;;;;;;5403969;26;20359;-62
2024/04/17 00:25:43;;;;;;;0.80;0.80;;;11.30;65.10;;;;;;5411539;26;20327;-62
2024/04/17 00:28:09;;;;;;;0.90;0.80;;;11.30;64.50;;;;;;5410485;26;20475;-61
2024/04/17 00:30:34;;;;;;;0.73;0.73;;;11.10;63.60;;;;;;5410395;26;20303;-60
2024/04/17 00:33:00;;;;;;;2.77;0.80;;;11.10;64.00;;;;;;5406906;26;20261;-61
2024/04/17 00:35:25;;;;;;;0.97;0.60;;;11.00;64.90;;;;;;5400292;26;20280;-62
2024/04/17 00:37:51;;;;;;;1.23;0.70;;;11.10;64.80;;;;;;5410472;26;20293;-61
2024/04/17 00:40:17;;;;;;;0.90;0.90;;;11.30;64.70;;;;;;5403868;26;20226;-60
2024/04/17 00:42:42;;;;;;;2.20;0.80;;;11.60;64.20;;;;;;5408194;26;20756;-61
2024/04/17 00:45:08;;;;;;;0.70;0.70;;;11.70;63.90;;;;;;5406715;26;20226;-62
2024/04/17 00:47:33;;;;;;;1.00;0.90;;;11.80;63.40;;;;;;5408665;26;20367;-62
2024/04/17 00:49:59;;;;;;;1.00;0.70;;;12.00;63.00;;;;;;5406142;26;20742;-61
2024/04/17 00:52:26;;;;;;;0.87;0.80;;;11.90;62.40;;;;;;5392234;26;20225;-59
2024/04/17 00:54:52;;;;;;;0.90;0.90;;;12.00;62.20;;;;;;5409490;26;20249;-61
2024/04/17 00:57:19;;;;;;;2.60;1.10;;;12.10;62.30;;;;;;5398802;26;20475;-59
2024/04/17 00:59:45;;;;;;;3.10;1.00;;;12.00;62.50;;;;;;5409837;26;20543;-62
2024/04/17 01:02:12;;;;;;;0.90;0.90;;;12.10;62.70;;;;;;5404300;26;20838;-60
2024/04/17 01:04:38;;;;;;;0.90;0.90;;;12.00;62.90;;;;;;5406560;26;20910;-61
2024/04/17 01:07:04;;;;;;;1.50;1.10;;;11.70;63.40;;;;;;5404943;26;20555;-61
2024/04/17 01:09:29;;;;;;;1.67;1.10;;;11.70;63.90;;;;;;5408986;26;20237;-60
2024/04/17 01:11:55;;;;;;;1.10;0.97;;;11.80;64.10;;;;;;5397519;26;20245;-61
2024/04/17 01:14:20;;;;;;;0.90;0.90;;;11.80;64.50;;;;;;5405326;26;20290;-61
2024/04/17 01:16:47;;;;;;;1.60;1.50;;;11.70;64.60;;;;;;5399800;26;20766;-61
2024/04/17 01:19:13;;;;;;;2.70;1.03;;;11.70;64.80;;;;;;5410688;26;20369;-62
2024/04/17 01:21:39;;;;;;;1.73;1.30;;;11.60;65.10;;;;;;5399556;26;20524;-60
2024/04/17 01:24:05;;;;;;;1.90;1.33;;;11.60;65.90;;;;;;5409505;26;20471;-60
2024/04/17 01:26:31;;;;;;;1.20;1.10;;;11.50;66.20;;;;;;5408995;26;20296;-62
2024/04/17 01:28:56;;;;;;;1.30;1.17;;;11.70;66.10;;;;;;5410986;26;20459;-61
2024/04/17 01:31:22;;;;;;;1.30;1.20;;;11.70;65.70;;;;;;5401705;26;20726;-59
2024/04/17 01:33:47;;;;;;;1.50;1.40;;;11.60;66.10;;;;;;5410331;26;20595;-61
2024/04/17 01:36:13;;;;;;;1.70;1.60;;;11.70;65.90;;;;;;5410514;26;20237;-60
2024/04/17 01:38:39;;;;;;;1.70;1.40;;;11.80;65.80;;;;;;5406426;26;20649;-61
2024/04/17 01:41:05;;;;;;;1.30;1.30;;;11.80;65.40;;;;;;5407060;26;20950;-62
2024/04/17 01:43:31;;;;;;;1.73;1.47;;;11.70;65.50;;;;;;5401417;26;20722;-62
2024/04/17 01:45:57;;;;;;;1.27;1.17;;;11.90;65.20;;;;;;5405657;26;21176;-59
2024/04/17 01:48:23;;;;;;;1.40;1.30;;;11.90;65.00;;;;;;5409892;26;20468;-61
2024/04/17 01:50:48;;;;;;;1.87;1.60;;;12.00;64.80;;;;;;5398882;26;20582;-61
2024/04/17 01:53:14;;;;;;;1.70;1.60;;;11.90;64.60;;;;;;5409882;26;20862;-59
2024/04/17 01:55:40;;;;;;;1.73;1.63;;;12.00;64.50;;;;;;5409060;26;20334;-56
2024/04/17 01:58:05;;;;;;;2.60;1.40;;;12.00;64.40;;;;;;5409453;26;20241;-60
2024/04/17 02:00:33;;;;;;;1.40;1.30;;;12.10;63.90;;;;;;5393687;26;20346;-60
2024/04/17 02:02:58;;;;;;;2.30;1.00;;;12.10;64.00;;;;;;5402220;26;20247;-61
2024/04/17 02:05:24;;;;;;;1.10;1.10;;;12.10;64.00;;;;;;5400454;26;20822;-60
2024/04/17 02:07:50;;;;;;;1.50;1.40;;;12.20;63.70;;;;;;5400755;26;20297;-61
2024/04/17 02:10:15;;;;;;;1.70;1.60;;;12.20;64.00;;;;;;5401273;26;20787;-59
2024/04/17 02:12:41;;;;;;;1.83;1.60;;;12.20;64.30;;;;;;5408019;26;21046;-62
2024/04/17 02:15:07;;;;;;;1.57;1.47;;;12.30;64.20;;;;;;5398011;26;20856;-63
2024/04/17 02:17:32;;;;;;;1.70;1.60;;;12.30;64.10;;;;;;5398596;26;20290;-62
2024/04/17 02:19:58;;;;;;;2.10;1.90;;;12.30;64.30;;;;;;5401425;26;20230;-62
2024/04/17 02:22:23;;;;;;;2.13;2.03;;;12.30;64.40;;;;;;5404788;26;20281;-60
2024/04/17 02:24:49;;;;;;;1.77;1.60;;;12.10;65.30;;;;;;5409421;26;20302;-60
2024/04/17 02:27:15;;;;;;;2.40;2.20;;;12.10;65.80;;;;;;5406473;26;20253;-60
2024/04/17 02:29:40;;;;;;;2.20;2.10;;;12.20;65.60;;;;;;5408446;26;20230;-60
2024/04/17 02:32:07;;;;;;;2.83;2.20;;;12.30;65.10;;;;;;5413688;26;20375;-59
2024/04/17 02:34:33;;;;;;;2.83;2.23;;;12.40;65.00;;;;;;5406040;26;20250;-60
2024/04/17 02:36:58;;;;;;;2.47;2.27;;;12.40;64.80;;;;;;5407535;26;20526;-60
2024/04/17 02:39:24;;;;;;;2.50;2.30;;;12.30;65.00;;;;;;5406711;26;20280;-60
2024/04/17 02:41:50;;;;;;;3.00;2.80;;;12.30;65.30;;;;;;5387511;26;20654;-60
2024/04/17 02:44:16;;;;;;;2.90;2.70;;;12.00;66.00;;;;;;5409797;26;20285;-60
2024/04/17 02:46:41;;;;;;;3.10;2.90;;;11.90;66.50;;;;;;5408193;26;20990;-60
2024/04/17 02:49:07;;;;;;;3.10;2.60;;;11.80;67.70;;;;;;5410446;26;20394;-60
2024/04/17 02:51:32;;;;;;;3.27;3.07;;;11.90;67.50;;;;;;5397820;26;20229;-59
2024/04/17 02:53:58;;;;;;;1.40;1.30;;;12.00;67.90;;;;;;5398239;26;20309;-60
2024/04/17 02:56:23;;;;;;;1.30;1.20;;;12.00;66.20;;;;;;5392271;26;20725;-60
2024/04/17 02:58:49;;;;;;;0.70;0.70;;;11.90;65.10;;;;;;5396187;26;20235;-60
2024/04/17 03:01:15;;;;;;;1.50;1.40;;;11.90;64.00;;;;;;5395506;26;20226;-59
2024/04/17 03:03:41;;;;;;;3.60;1.40;;;11.70;64.30;;;;;;5402646;26;20268;-61
2024/04/17 03:06:07;;;;;;;1.67;1.57;;;11.70;64.40;;;;;;5409556;26;20463;-60
2024/04/17 03:08:33;;;;;;;1.37;1.27;;;11.70;63.80;;;;;;5387985;26;20927;-59
2024/04/17 03:11:00;;;;;;;1.47;1.30;;;11.80;63.80;;;;;;5393254;26;20515;-61
2024/04/17 03:13:26;;;;;;;1.83;1.73;;;11.70;63.00;;;;;;5395369;26;20598;-60
2024/04/17 03:15:52;;;;;;;1.67;1.57;;;11.70;63.50;;;;;;5385601;26;20461;-60
2024/04/17 03:18:18;;;;;;;2.10;1.77;;;11.80;63.60;;;;;;5397080;26;20296;-59
2024/04/17 03:20:43;;;;;;;3.03;1.77;;;11.90;63.40;;;;;;5401709;26;20237;-59
2024/04/17 03:23:10;;;;;;;2.00;1.80;;;12.00;63.40;;;;;;5401165;26;20462;-60
2024/04/17 03:25:35;;;;;;;2.43;1.70;;;12.00;63.60;;;;;;5402768;26;20655;-60
2024/04/17 03:28:01;;;;;;;2.07;1.97;;;12.10;63.30;;;;;;5407436;26;20514;-60
2024/04/17 03:30:26;;;;;;;2.60;1.80;;;12.10;62.80;;;;;;5404075;26;20637;-61
2024/04/17 03:32:52;;;;;;;4.77;2.20;;;12.10;62.90;;;;;;5408052;26;20234;-60
2024/04/17 03:35:18;;;;;;;1.93;1.80;;;12.20;62.80;;;;;;5408532;26;20279;-60
2024/04/17 03:37:44;;;;;;;2.20;2.00;;;12.20;62.70;;;;;;5409571;26;20591;-60
2024/04/17 03:40:10;;;;;;;2.37;2.17;;;12.20;62.60;;;;;;5402477;26;20529;-60
2024/04/17 03:42:36;;;;;;;2.57;2.37;;;12.20;62.80;;;;;;5404154;26;20982;-60
2024/04/17 03:45:02;;;;;;;2.97;2.37;;;12.20;62.70;;;;;;5405642;26;20235;-61
2024/04/17 03:47:28;;;;;;;2.80;2.33;;;12.30;62.80;;;;;;5407097;26;20233;-60
2024/04/17 03:49:53;;;;;;;2.10;1.90;;;12.30;62.60;;;;;;5400939;26;20531;-61
2024/04/17 03:52:19;;;;;;;3.20;2.30;;;12.30;62.40;;;;;;5411564;26;20335;-60
2024/04/17 03:54:45;;;;;;;3.00;2.60;;;12.30;62.20;;;;;;5405316;26;20286;-60
2024/04/17 03:57:11;;;;;;;2.53;2.00;;;12.40;62.00;;;;;;5411075;26;20292;-61
2024/04/17 03:59:36;;;;;;;2.40;2.30;;;12.40;62.80;;;;;;5398111;26;20272;-60
2024/04/17 04:02:05;;;;;;;2.63;2.43;;;12.40;62.10;;;;;;5401681;26;20904;-61
2024/04/17 04:04:31;;;;;;;3.20;2.83;;;12.40;62.00;;;;;;5400149;26;20269;-60
2024/04/17 04:06:57;;;;;;;4.07;2.60;;;12.40;61.80;;;;;;5393465;26;20523;-60
2024/04/17 04:09:23;;;;;;;3.03;2.83;;;12.40;61.60;;;;;;5392730;26;20230;-60
2024/04/17 04:11:52;;;;;;;3.10;2.80;;;12.40;61.60;;;;;;5407124;26;20225;-61
2024/04/17 04:14:18;;;;;;;3.37;3.10;;;12.40;61.60;;;;;;5410992;26;21182;-61
2024/04/17 04:16:45;;;;;;;3.70;3.17;;;12.40;61.70;;;;;;5409010;26;20473;-61
2024/04/17 04:19:10;;;;;;;4.47;3.43;;;12.40;61.90;;;;;;5407712;26;20230;-61
2024/04/17 04:21:36;;;;;;;3.43;3.23;;;12.40;62.10;;;;;;5407622;26;20467;-61
2024/04/17 04:24:02;;;;;;;3.70;3.40;;;12.40;62.00;;;;;;5411301;26;20233;-61
2024/04/17 04:26:27;;;;;;;5.97;4.17;;;12.40;61.80;;;;;;5410160;26;20230;-61
2024/04/17 04:28:53;;;;;;;4.10;3.70;;;12.40;61.60;;;;;;5409344;26;20378;-61
2024/04/17 04:31:18;;;;;;;4.77;4.13;;;12.50;61.50;;;;;;5406814;26;20573;-61
2024/04/17 04:33:44;;;;;;;5.17;4.67;;;12.40;61.10;;;;;;5410462;26;20237;-62
2024/04/17 04:36:09;;;;;;;4.10;3.70;;;12.50;60.90;;;;;;5410327;26;20292;-62
2024/04/17 04:38:35;;;;;;;4.50;4.10;;;12.40;60.90;;;;;;5410691;26;20288;-61
2024/04/17 04:41:01;;;;;;;4.43;4.03;;;12.40;61.70;;;;;;5410964;26;20334;-60
2024/04/17 04:43:27;;;;;;;4.53;3.60;;;12.40;60.80;;;;;;5396757;26;20254;-61
2024/04/17 04:45:53;;;;;;;5.20;4.20;;;12.40;60.80;;;;;;5412022;26;21116;-60
2024/04/17 04:48:18;;;;;;;5.27;4.60;;;12.40;60.60;;;;;;5394838;26;20292;-61
2024/04/17 04:50:44;;;;;;;3.80;3.50;;;12.40;60.50;;;;;;5397046;26;20273;-61
2024/04/17 04:53:09;;;;;;;4.20;3.90;;;12.40;60.40;;;;;;5395524;26;20276;-60
2024/04/17 04:55:35;;;;;;;4.90;4.10;;;12.40;60.40;;;;;;5390092;26;20705;-61
2024/04/17 04:58:01;;;;;;;4.30;3.90;;;12.40;60.60;;;;;;5407739;26;20673;-61
2024/04/17 05:00:26;;;;;;;4.33;3.93;;;12.40;60.80;;;;;;5402358;26;20229;-61
2024/04/17 05:02:52;;;;;;;4.90;4.43;;;12.40;60.90;;;;;;5398292;26;20338;-61
2024/04/17 05:05:17;;;;;;;4.17;3.77;;;12.40;60.90;;;;;;5403600;26;20327;-61
2024/04/17 05:07:43;;;;;;;4.60;4.20;;;12.50;60.90;;;;;;5399519;26;20297;-61
2024/04/17 05:10:08;;;;;;;4.40;4.00;;;12.50;60.50;;;;;;5401637;26;20559;-61
2024/04/17 05:12:34;;;;;;;5.30;4.00;;;12.40;60.30;;;;;;5402632;26;20282;-61
2024/04/17 05:15:00;;;;;;;5.10;4.60;;;12.40;60.30;;;;;;5399895;26;20325;-60
2024/04/17 05:17:25;;;;;;;4.97;4.47;;;12.40;60.60;;;;;;5400874;26;20763;-60
2024/04/17 05:19:51;;;;;;;4.57;4.17;;;12.50;61.00;;;;;;5391480;26;20796;-61
2024/04/17 05:22:16;;;;;;;5.30;4.80;;;12.70;61.10;;;;;;5403868;26;20612;-59
2024/04/17 05:24:42;;;;;;;4.80;4.30;;;12.80;60.40;;;;;;5410247;26;21238;-61
2024/04/17 05:27:07;;;;;;;4.63;4.23;;;12.90;60.00;;;;;;5409446;26;20233;-60
2024/04/17 05:29:33;;;;;;;4.37;4.07;;;13.00;59.90;;;;;;5406639;26;20277;-61
2024/04/17 05:31:58;;;;;;;5.17;4.70;;;13.10;59.70;;;;;;5405739;26;20276;-61
2024/04/17 05:34:24;;;;;;;4.40;3.80;;;13.20;60.00;;;;;;5399217;26;20237;-61
2024/04/17 05:36:50;;;;;;;3.73;3.43;;;13.40;59.20;;;;;;5409862;26;20242;-61
2024/04/17 05:39:15;;;;;;;5.27;4.87;;;13.40;58.80;;;;;;5396467;26;20272;-61
2024/04/17 05:41:41;;;;;;;5.17;4.67;;;13.50;58.70;;;;;;5400488;26;20276;-61
2024/04/17 05:44:06;;;;;;;4.67;4.07;;;13.50;58.40;;;;;;5407556;26;20241;-61
2024/04/17 05:46:32;;;;;;;5.07;4.40;;;13.60;58.40;;;;;;5405914;26;20297;-61
2024/04/17 05:48:57;;;;;;;5.53;3.90;;;13.70;58.30;;;;;;5402303;26;20227;-60
2024/04/17 05:51:23;;;;;;;4.40;4.00;;;13.70;57.90;;;;;;5407037;26;20234;-61
2024/04/17 05:53:49;;;;;;;3.13;2.90;;;13.70;57.70;;;;;;5396379;26;20242;-62
2024/04/17 05:56:17;;;;;;;5.23;4.03;;;13.70;57.80;;;;;;5393397;26;20725;-61
2024/04/17 05:58:42;;;;;;;4.63;3.80;;;13.70;57.70;;;;;;5397829;26;20281;-61
2024/04/17 06:01:08;;;;;;;4.77;4.37;;;13.80;57.40;;;;;;5401309;26;20540;-60
2024/04/17 06:03:34;;;;;;;5.03;4.47;;;13.70;57.30;;;;;;5425580;26;20232;-62
2024/04/17 06:05:59;;;;;;;4.73;4.30;;;13.60;56.90;;;;;;5404372;26;20243;-59
2024/04/17 06:08:25;;;;;;;4.40;4.10;;;13.30;57.60;;;;;;5408595;26;20246;-60
2024/04/17 06:10:50;;;;;;;4.13;3.77;;;13.30;58.10;;;;;;5394007;26;20283;-60
2024/04/17 06:13:16;;;;;;;4.17;3.83;;;13.40;58.20;;;;;;5395229;26;20336;-60
2024/04/17 06:15:41;;;;;;;5.00;4.60;;;13.40;58.30;;;;;;5400952;26;20259;-61
2024/04/17 06:18:07;;;;;;;7.37;4.73;;;13.50;58.50;;;;;;5407120;26;20245;-61
2024/04/17 06:20:34;;;;;;;5.60;4.70;;;13.50;58.70;;;;;;5394937;26;20226;-61
2024/04/17 06:23:02;;;;;;;5.20;4.70;;;13.50;58.70;;;;;;5407552;26;20279;-59
2024/04/17 06:25:27;;;;;;;9.10;4.57;;;13.60;58.80;;;;;;5398025;26;20833;-60
2024/04/17 06:27:53;;;;;;;4.90;4.50;;;13.60;58.70;;;;;;5401386;26;20583;-59
2024/04/17 06:30:18;;;;;;;5.53;5.03;;;13.60;58.70;;;;;;5399454;26;20233;-59
2024/04/17 06:32:44;;;;;;;8.77;7.90;;;13.60;58.60;;;;;;5406231;26;20231;-60
2024/04/17 06:35:09;;;;;;;8.03;7.23;;;13.50;58.30;;;;;;5394062;26;20330;-60
2024/04/17 06:37:35;;;;;;;6.63;6.03;;;13.40;58.90;;;;;;5406956;26;20277;-60
2024/04/17 06:40:01;;;;;;;8.77;5.57;;;13.40;59.40;;;;;;5412736;26;20229;-60
2024/04/17 06:42:26;;;;;;;6.27;5.67;;;13.50;59.50;;;;;;5405805;26;20729;-60
2024/04/17 06:44:52;;;;;;;5.27;4.77;;;13.50;59.70;;;;;;5410537;26;20891;-60
2024/04/17 06:47:17;;;;;;;5.97;5.47;;;13.30;59.80;;;;;;5409547;26;20284;-60
2024/04/17 06:49:46;;;;;;;5.47;5.00;;;13.30;60.10;;;;;;5387529;26;20357;-60
2024/04/17 06:52:11;;;;;;;5.67;5.20;;;13.10;60.70;;;;;;5401696;26;20233;-60
2024/04/17 06:54:37;;;;;;;5.07;4.60;;;13.10;61.10;;;;;;5403090;26;21441;-60
2024/04/17 06:57:03;;;;;;;5.40;4.90;;;12.90;62.70;;;;;;5406442;26;20257;-60
2024/04/17 06:59:28;;;;;;;5.77;5.17;;;12.90;62.30;;;;;;5387528;26;20238;-59
2024/04/17 07:01:54;;;;;;;5.53;5.03;;;13.00;62.00;;;;;;5400893;26;20585;-60
2024/04/17 07:04:21;;;;;;;6.00;5.50;;;13.00;62.20;;;;;;5396715;26;20276;-60
2024/04/17 07:06:46;;;;;;;6.43;5.83;;;13.10;62.20;;;;;;5396018;26;20775;-60
2024/04/17 07:09:12;;;;;;;5.43;4.93;;;13.10;62.00;;;;;;5388931;26;20577;-60
2024/04/17 07:11:37;;;;;;;5.07;4.50;;;13.10;61.90;;;;;;5389533;26;20230;-60
2024/04/17 07:14:03;;;;;;;4.70;4.37;;;13.00;62.00;;;;;;5399300;26;20612;-60
2024/04/17 07:16:29;;;;;;;4.60;4.20;;;13.00;61.40;;;;;;5390232;26;20245;-59
2024/04/17 07:18:54;;;;;;;5.13;4.63;;;12.90;60.70;;;;;;5393226;26;20239;-60
2024/04/17 07:21:20;;;;;;;4.70;4.30;;;12.90;61.10;;;;;;5409422;26;20229;-61
2024/04/17 07:23:45;;;;;;;5.90;5.30;;;12.90;61.40;;;;;;5390404;26;20339;-60
2024/04/17 07:26:12;;;;;;;4.70;4.30;;;12.90;61.70;;;;;;5402506;26;20238;-60
2024/04/17 07:28:38;;;;;;;5.53;4.43;;;12.80;62.40;;;;;;5396948;26;20922;-60
2024/04/17 07:31:04;;;;;;;6.27;4.70;;;12.70;63.30;;;;;;5396963;26;20477;-60
2024/04/17 07:33:29;;;;;;;5.03;4.53;;;12.80;63.50;;;;;;5400923;26;20749;-60
2024/04/17 07:35:59;;;;;;;8.80;5.20;;;12.90;63.40;;;;;;5399285;26;20520;-60
2024/04/17 07:38:24;;;;;;;5.10;4.60;;;12.90;63.20;;;;;;5405526;26;20245;-60
2024/04/17 07:41:03;;;;;;;4.80;3.97;;;13.10;63.00;;;;;;5395725;26;20469;-60
2024/04/17 07:43:31;;;;;;;4.37;4.07;;;13.20;62.90;;;;;;5389687;26;20313;-60
2024/04/17 07:46:01;;;;;;;6.10;5.50;;;13.30;62.10;;;;;;5389693;26;20528;-61
2024/04/17 07:48:27;;;;;;;4.50;3.87;;;13.30;61.80;;;;;;5394552;26;20475;-59
2024/04/17 07:50:54;;;;;;;3.50;3.20;;;13.40;61.40;;;;;;5396129;26;20459;-59
2024/04/17 07:53:19;;;;;;;3.93;3.60;;;13.30;61.30;;;;;;5395443;26;20468;-58
2024/04/17 07:55:45;;;;;;;3.67;3.37;;;13.30;61.30;;;;;;5385614;26;20536;-60
2024/04/17 07:58:10;;;;;;;4.00;3.70;;;13.30;61.40;;;;;;5393233;26;20238;-61
2024/04/17 08:00:37;;;;;;;4.20;3.90;;;13.30;61.50;;;;;;5400275;26;20339;-60
2024/04/17 08:03:04;;;;;;;4.30;4.00;;;13.30;61.60;;;;;;5404073;26;21155;-61
2024/04/17 08:05:29;;;;;;;5.63;4.53;;;13.40;61.50;;;;;;5408155;26;20492;-59
2024/04/17 08:07:55;;;;;;;4.40;4.10;;;13.40;61.70;;;;;;5407043;26;20583;-60
2024/04/17 08:10:20;;;;;;;5.70;5.20;;;13.30;61.90;;;;;;5405888;26;20313;-59
2024/04/17 08:12:47;;;;;;;5.80;5.30;;;13.40;61.90;;;;;;5382880;26;20282;-60
2024/04/17 08:15:13;;;;;;;5.30;4.53;;;13.40;61.90;;;;;;5402763;26;20249;-60
2024/04/17 08:17:42;;;;;;;8.13;5.70;;;13.30;62.70;;;;;;5390522;26;20479;-60
2024/04/17 08:20:07;;;;;;;6.50;5.67;;;13.20;63.10;;;;;;5391995;26;20461;-59
2024/04/17 08:22:33;;;;;;;6.40;5.27;;;13.10;63.10;;;;;;5401257;26;20473;-60
2024/04/17 08:24:59;;;;;;;4.97;4.57;;;13.00;64.00;;;;;;5404369;26;20234;-58
2024/04/17 08:27:24;;;;;;;4.87;4.47;;;13.10;63.70;;;;;;5406095;26;20245;-60
2024/04/17 08:29:50;;;;;;;6.23;4.80;;;13.10;63.60;;;;;;5396631;26;20280;-60
2024/04/17 08:32:15;;;;;;;4.40;4.00;;;13.10;62.80;;;;;;5410524;26;20242;-61
2024/04/17 08:34:41;;;;;;;6.53;5.53;;;12.90;61.60;;;;;;5391197;26;20234;-61
2024/04/17 08:37:07;;;;;;;4.70;4.30;;;12.70;60.90;;;;;;5402169;26;20347;-58
2024/04/17 08:39:32;;;;;;;5.07;4.67;;;12.70;61.10;;;;;;5397028;26;20237;-61
2024/04/17 08:42:04;;;;;;;7.20;5.23;;;13.00;60.70;;;;;;5404428;26;20225;-60
2024/04/17 08:44:33;;;;;;;7.70;6.20;;;13.10;60.30;;;;;;5405258;26;20356;-61
2024/04/17 08:47:02;;;;;;;5.57;5.17;;;13.10;60.60;;;;;;5395592;26;21106;-60
2024/04/17 08:49:30;;;;;;;6.17;5.40;;;13.20;60.70;;;;;;5401456;26;20605;-61
2024/04/17 08:51:57;;;;;;;4.67;4.30;;;13.30;60.70;;;;;;5399325;26;20477;-59
2024/04/17 08:54:23;;;;;;;5.97;5.47;;;13.50;61.00;;;;;;5405452;26;20577;-60
2024/04/17 08:56:48;;;;;;;4.97;4.57;;;13.60;60.80;;;;;;5402255;26;20468;-60
2024/04/17 08:59:14;;;;;;;7.07;6.37;;;13.70;60.60;;;;;;5401505;26;20970;-61
2024/04/17 09:01:41;;;;;;;7.17;6.23;;;13.80;60.70;;;;;;5393888;26;20234;-59
2024/04/17 09:04:07;;;;;;;10.20;7.80;;;13.90;60.80;;;;;;5393638;26;20241;-60
2024/04/17 09:06:37;;;;;;;7.40;6.70;;;13.90;60.90;;;;;;5409710;26;20590;-60
2024/04/17 09:09:03;;;;;;;7.80;6.50;;;13.90;61.20;;;;;;5406731;26;20542;-60
2024/04/17 09:11:29;;;;;;;7.73;7.00;;;14.00;61.40;;;;;;5408516;26;20524;-61
2024/04/17 09:13:55;;;;;;;8.23;7.43;;;14.10;61.00;;;;;;5391453;26;20475;-58
2024/04/17 09:16:21;;;;;;;7.63;5.10;;;14.00;60.50;;;;;;5397327;26;20527;-58
2024/04/17 09:18:48;;;;;;;4.80;4.40;;;13.60;59.90;;;;;;5404525;26;20245;-59
2024/04/17 09:21:14;;;;;;;6.10;5.10;;;13.10;60.30;;;;;;5405567;26;20245;-59
2024/04/17 09:23:39;;;;;;;4.90;4.23;;;12.80;61.30;;;;;;5406201;26;20512;-59
2024/04/17 09:26:18;;;;;;;7.90;4.30;;;12.60;61.50;;;;;;5401975;26;20253;-58
2024/04/17 09:28:49;;;;;;;4.40;4.00;;;12.40;62.90;;;;;;5402312;26;20246;-60
2024/04/17 09:31:15;;;;;;;3.73;3.47;;;12.50;62.40;;;;;;5410550;26;20548;-59
2024/04/17 09:33:43;;;;;;;7.93;3.50;;;12.60;62.00;;;;;;5402926;26;20528;-59
2024/04/17 09:36:09;;;;;;;9.00;4.27;;;12.30;61.40;;;;;;5397081;26;20572;-59
2024/04/17 09:38:35;;;;;;;4.20;3.33;;;12.20;61.40;;;;;;5406721;26;20483;-58
2024/04/17 09:41:01;;;;;;;5.83;4.00;;;12.20;61.80;;;;;;5406797;26;20229;-59
2024/04/17 09:43:28;;;;;;;9.30;3.73;;;12.10;62.20;;;;;;5396122;26;20591;-60
2024/04/17 09:46:01;;;;;;;5.43;3.10;;;11.90;62.20;;;;;;5399118;26;20256;-60
2024/04/17 09:48:28;;;;;;;3.83;3.17;;;11.90;61.60;;;;;;5369600;26;20527;-59
2024/04/17 09:51:03;;;;;;;3.37;3.07;;;11.70;61.50;;;;;;5396725;26;20488;-59
2024/04/17 09:53:32;;;;;;;2.97;2.50;;;11.80;61.60;;;;;;5407772;26;20530;-60
2024/04/17 09:55:58;;;;;;;3.77;2.70;;;11.80;61.60;;;;;;5392889;26;21130;-60
2024/04/17 09:58:32;;;;;;;2.87;2.67;;;11.70;61.90;;;;;;5413689;26;20471;-60
2024/04/17 10:01:01;;;;;;;3.40;3.10;;;11.90;61.60;;;;;;5397379;26;21221;-57
2024/04/17 10:03:27;;;;;;;3.60;3.30;;;11.90;61.40;;;;;;5403726;26;20585;-60
2024/04/17 10:05:53;;;;;;;4.20;3.10;;;11.90;61.50;;;;;;5402940;26;20878;-58
2024/04/17 10:08:20;;;;;;;4.47;3.27;;;11.90;61.70;;;;;;5403645;26;20471;-59
2024/04/17 10:10:46;;;;;;;5.63;3.50;;;12.00;61.80;;;;;;5398605;26;20324;-60
2024/04/17 10:13:13;;;;;;;4.70;3.67;;;12.00;62.30;;;;;;5407154;26;20489;-59
2024/04/17 10:15:39;;;;;;;3.90;3.60;;;12.10;62.40;;;;;;5400014;26;20516;-58
2024/04/17 10:18:05;;;;;;;3.70;3.10;;;12.20;62.70;;;;;;5402130;26;21287;-59
2024/04/17 10:20:32;;;;;;;4.47;4.00;;;12.30;63.40;;;;;;5359506;26;20278;-58
2024/04/17 10:23:07;;;;;;;4.20;3.83;;;12.40;63.30;;;;;;5399427;26;20602;-58
2024/04/17 10:25:33;;;;;;;3.90;3.60;;;12.40;63.50;;;;;;5398768;26;20485;-58
2024/04/17 10:28:12;;;;;;;5.93;4.43;;;12.50;63.10;;;;;;5408791;26;20530;-57
2024/04/17 10:30:38;;;;;;;4.23;3.73;;;12.60;63.40;;;;;;5393975;26;20473;-58
2024/04/17 10:33:17;;;;;;;4.33;3.47;;;12.70;62.80;;;;;;5405819;26;20596;-59
2024/04/17 10:35:43;;;;;;;4.53;3.87;;;12.80;62.50;;;;;;5412847;26;20725;-59
2024/04/17 10:38:12;;;;;;;7.20;4.30;;;12.80;63.40;;;;;;5410999;26;20459;-59
2024/04/17 10:40:38;;;;;;;4.27;3.97;;;12.90;63.20;;;;;;5406906;26;20272;-59
2024/04/17 10:43:06;;;;;;;5.57;4.50;;;13.00;62.90;;;;;;5396450;26;20476;-59
2024/04/17 10:45:31;;;;;;;5.63;4.10;;;13.30;62.70;;;;;;5394722;26;20471;-57
2024/04/17 10:48:00;;;;;;;7.57;4.90;;;13.40;62.30;;;;;;5386185;26;21085;-60
2024/04/17 10:50:26;;;;;;;6.27;5.30;;;13.70;63.20;;;;;;5410090;26;20225;-59
2024/04/17 10:52:53;;;;;;;6.60;6.00;;;13.80;63.20;;;;;;5409902;26;21038;-59
2024/04/17 10:55:20;;;;;;;8.60;5.00;;;13.90;61.40;;;;;;5408333;26;21025;-60
2024/04/17 10:57:45;;;;;;;7.27;6.20;;;13.80;61.60;;;;;;5400198;26;20609;-58
2024/04/17 11:00:11;;;;;;;5.73;5.20;;;13.80;62.50;;;;;;5405229;26;20837;-60
2024/04/17 11:02:37;;;;;;;7.50;5.70;;;13.90;62.60;;;;;;5406377;26;20231;-59
2024/04/17 11:05:03;;;;;;;6.97;5.80;;;14.00;62.00;;;;;;5402742;26;21163;-59
2024/04/17 11:07:30;;;;;;;10.93;5.63;;;14.00;61.00;;;;;;5408583;26;20237;-60
2024/04/17 11:09:56;;;;;;;6.30;5.70;;;14.10;59.70;;;;;;5409964;26;20241;-58
2024/04/17 11:12:21;;;;;;;11.53;5.20;;;14.30;60.00;;;;;;5401654;26;21064;-60
2024/04/17 11:14:58;;;;;;;7.40;6.60;;;14.40;59.90;;;;;;5403081;26;20527;-60
2024/04/17 11:17:24;;;;;;;7.53;6.00;;;14.50;60.30;;;;;;5408085;26;20272;-58
2024/04/17 11:19:50;;;;;;;6.53;5.47;;;14.60;59.80;;;;;;5391772;26;20820;-60
2024/04/17 11:22:16;;;;;;;6.20;5.63;;;14.60;59.20;;;;;;5397771;26;20333;-59
2024/04/17 11:24:46;;;;;;;8.50;5.23;;;14.60;58.90;;;;;;5410482;26;20514;-59
2024/04/17 11:27:15;;;;;;;6.43;5.43;;;14.70;58.40;;;;;;5402983;26;20235;-59
2024/04/17 11:29:47;;;;;;;6.10;5.50;;;14.90;58.00;;;;;;5402974;26;21154;-59
2024/04/17 11:32:13;;;;;;;7.97;5.00;;;14.90;57.90;;;;;;5411017;26;21114;-57
2024/04/17 11:34:39;;;;;;;8.10;5.40;;;15.00;57.70;;;;;;5408304;26;21187;-59
2024/04/17 11:37:06;;;;;;;7.97;4.73;;;15.00;58.00;;;;;;5412988;26;20459;-59
2024/04/17 11:39:32;;;;;;;5.60;5.10;;;15.10;58.10;;;;;;5405024;26;20249;-56
2024/04/17 11:42:04;;;;;;;9.10;4.57;;;15.00;57.90;;;;;;5418152;26;20523;-60
2024/04/17 11:44:38;;;;;;;6.50;5.00;;;14.90;57.80;;;;;;5407339;26;20518;-59
2024/04/17 11:47:09;;;;;;;4.50;3.80;;;14.60;58.50;;;;;;5405435;26;20539;-57
2024/04/17 11:49:34;;;;;;;4.73;4.23;;;14.40;57.10;;;;;;5391415;26;20461;-58
2024/04/17 11:52:01;;;;;;;7.27;5.50;;;14.50;57.30;;;;;;5409308;26;20520;-57
2024/04/17 11:54:27;;;;;;;8.37;7.27;;;14.60;56.90;;;;;;5403528;26;20290;-58
2024/04/17 11:56:52;;;;;;;5.23;4.77;;;14.50;57.10;;;;;;5410305;26;20456;-58
2024/04/17 11:59:18;;;;;;;7.30;5.23;;;14.40;57.20;;;;;;5399557;26;20857;-58
2024/04/17 12:01:44;;;;;;;5.50;4.40;;;14.60;57.80;;;;;;5403803;26;20301;-58
2024/04/17 12:04:09;;;;;;;7.00;4.60;;;14.80;57.10;;;;;;5397317;26;20234;-58
2024/04/17 12:06:35;;;;;;;5.40;4.00;;;14.90;55.80;;;;;;5412067;26;20241;-56
2024/04/17 12:09:01;;;;;;;6.03;3.83;;;14.80;54.90;;;;;;5404936;26;20302;-58
2024/04/17 12:11:26;;;;;;;5.90;4.23;;;14.90;54.70;;;;;;5405751;26;20930;-58
2024/04/17 12:13:52;;;;;;;5.73;4.37;;;14.60;55.30;;;;;;5404541;26;20523;-59
2024/04/17 12:16:18;;;;;;;7.03;4.60;;;14.60;55.20;;;;;;5402293;26;20246;-57
2024/04/17 12:18:43;;;;;;;3.27;2.97;;;14.50;56.10;;;;;;5395709;26;20249;-56
2024/04/17 12:21:09;;;;;;;4.30;3.53;;;14.20;53.40;;;;;;5404160;26;20238;-60
2024/04/17 12:23:35;;;;;;;8.60;3.50;;;14.20;53.40;;;;;;5401226;26;20234;-60
2024/04/17 12:28:46;;;;;;;5.97;3.90;;;14.20;54.50;;;;;;5393637;26;20605;-60
2024/04/17 12:31:12;;;;;;;4.27;3.60;;;14.20;55.10;;;;;;5401395;26;20810;-59
2024/04/17 12:33:37;;;;;;;5.17;4.07;;;14.20;54.30;;;;;;5408211;26;20639;-60
2024/04/17 12:36:04;;;;;;;7.10;3.73;;;14.30;54.80;;;;;;5400232;26;20577;-58
2024/04/17 12:38:29;;;;;;;5.40;4.27;;;14.30;55.00;;;;;;5410542;26;20237;-60
2024/04/17 12:40:56;;;;;;;5.33;4.50;;;14.10;55.30;;;;;;5397153;26;20529;-58
2024/04/17 12:43:21;;;;;;;5.80;3.70;;;14.20;55.20;;;;;;5409730;26;20273;-59